sensor_id;sensor_type;location;lat;lon;timestamp;P1;durP1;ratioP1;P2;durP2;ratioP2
33714;SDS011;20043;50.998;4.754;2023-08-08T00:00:23;6.60;;;2.38;;
33714;SDS011;20043;50.998;4.754;2023-08-08T00:02:49;9.60;;;2.95;;
33714;SDS011;20043;50.998;4.754;2023-08-08T00:05:14;7.10;;;2.38;;
33714;SDS011;20043;50.998;4.754;2023-08-08T00:07:40;8.68;;;2.53;;
33714;SDS011;20043;50.998;4.754;2023-08-08T00:10:06;11.93;;;3.17;;
33714;SDS011;20043;50.998;4.754;2023-08-08T00:12:32;8.88;;;3.13;;
33714;SDS011;20043;50.998;4.754;2023-08-08T00:14:58;5.18;;;2.40;;
33714;SDS011;20043;50.998;4.754;2023-08-08T00:17:23;8.07;;;2.90;;
33714;SDS011;20043;50.998;4.754;2023-08-08T00:19:49;6.05;;;2.47;;
33714;SDS011;20043;50.998;4.754;2023-08-08T00:22:14;7.32;;;2.35;;
33714;SDS011;20043;50.998;4.754;2023-08-08T00:24:40;9.52;;;3.10;;
33714;SDS011;20043;50.998;4.754;2023-08-08T00:27:06;13.43;;;2.70;;
33714;SDS011;20043;50.998;4.754;2023-08-08T00:29:31;10.00;;;2.38;;
33714;SDS011;20043;50.998;4.754;2023-08-08T00:31:57;9.82;;;2.92;;
33714;SDS011;20043;50.998;4.754;2023-08-08T00:34:22;11.27;;;2.70;;
33714;SDS011;20043;50.998;4.754;2023-08-08T00:36:48;13.32;;;3.00;;
33714;SDS011;20043;50.998;4.754;2023-08-08T00:39:14;14.45;;;2.90;;
33714;SDS011;20043;50.998;4.754;2023-08-08T00:41:39;12.35;;;3.38;;
33714;SDS011;20043;50.998;4.754;2023-08-08T00:44:05;9.70;;;3.00;;
33714;SDS011;20043;50.998;4.754;2023-08-08T00:46:30;10.52;;;3.13;;
33714;SDS011;20043;50.998;4.754;2023-08-08T00:48:56;9.40;;;2.80;;
33714;SDS011;20043;50.998;4.754;2023-08-08T00:51:22;9.52;;;3.00;;
33714;SDS011;20043;50.998;4.754;2023-08-08T00:53:49;10.70;;;2.95;;
33714;SDS011;20043;50.998;4.754;2023-08-08T00:56:15;12.88;;;2.83;;
33714;SDS011;20043;50.998;4.754;2023-08-08T00:58:42;12.20;;;2.90;;
33714;SDS011;20043;50.998;4.754;2023-08-08T01:01:10;9.68;;;2.90;;
33714;SDS011;20043;50.998;4.754;2023-08-08T01:03:36;9.40;;;2.78;;
33714;SDS011;20043;50.998;4.754;2023-08-08T01:08:31;10.80;;;3.20;;
33714;SDS011;20043;50.998;4.754;2023-08-08T01:11:03;13.18;;;3.10;;
33714;SDS011;20043;50.998;4.754;2023-08-08T01:13:30;16.20;;;3.40;;
33714;SDS011;20043;50.998;4.754;2023-08-08T01:15:58;13.63;;;3.38;;
33714;SDS011;20043;50.998;4.754;2023-08-08T01:18:24;17.20;;;3.15;;
33714;SDS011;20043;50.998;4.754;2023-08-08T01:20:51;9.73;;;3.53;;
33714;SDS011;20043;50.998;4.754;2023-08-08T01:23:19;16.27;;;3.38;;
33714;SDS011;20043;50.998;4.754;2023-08-08T01:25:57;14.27;;;3.70;;
33714;SDS011;20043;50.998;4.754;2023-08-08T01:28:24;14.10;;;3.35;;
33714;SDS011;20043;50.998;4.754;2023-08-08T01:30:50;20.70;;;3.45;;
33714;SDS011;20043;50.998;4.754;2023-08-08T01:33:16;15.98;;;4.00;;
33714;SDS011;20043;50.998;4.754;2023-08-08T01:35:43;11.38;;;3.50;;
33714;SDS011;20043;50.998;4.754;2023-08-08T01:38:31;11.40;;;3.13;;
33714;SDS011;20043;50.998;4.754;2023-08-08T01:41:07;13.65;;;3.85;;
33714;SDS011;20043;50.998;4.754;2023-08-08T01:43:33;11.40;;;3.40;;
33714;SDS011;20043;50.998;4.754;2023-08-08T01:46:02;13.90;;;3.83;;
33714;SDS011;20043;50.998;4.754;2023-08-08T01:48:29;16.38;;;3.80;;
33714;SDS011;20043;50.998;4.754;2023-08-08T01:50:55;12.13;;;2.97;;
33714;SDS011;20043;50.998;4.754;2023-08-08T01:53:20;10.15;;;3.25;;
33714;SDS011;20043;50.998;4.754;2023-08-08T01:55:46;16.67;;;3.78;;
33714;SDS011;20043;50.998;4.754;2023-08-08T01:58:12;14.00;;;3.97;;
33714;SDS011;20043;50.998;4.754;2023-08-08T02:00:37;14.73;;;3.67;;
33714;SDS011;20043;50.998;4.754;2023-08-08T02:03:03;20.75;;;4.10;;
33714;SDS011;20043;50.998;4.754;2023-08-08T02:05:29;9.55;;;3.83;;
33714;SDS011;20043;50.998;4.754;2023-08-08T02:07:54;14.52;;;4.43;;
33714;SDS011;20043;50.998;4.754;2023-08-08T02:10:20;14.35;;;3.70;;
33714;SDS011;20043;50.998;4.754;2023-08-08T02:12:46;13.57;;;3.72;;
33714;SDS011;20043;50.998;4.754;2023-08-08T02:15:11;13.35;;;3.47;;
33714;SDS011;20043;50.998;4.754;2023-08-08T02:17:37;19.50;;;4.28;;
33714;SDS011;20043;50.998;4.754;2023-08-08T02:20:04;17.33;;;3.67;;
33714;SDS011;20043;50.998;4.754;2023-08-08T02:22:31;14.10;;;4.18;;
33714;SDS011;20043;50.998;4.754;2023-08-08T02:24:57;17.60;;;4.88;;
33714;SDS011;20043;50.998;4.754;2023-08-08T02:27:23;16.83;;;4.80;;
33714;SDS011;20043;50.998;4.754;2023-08-08T02:29:48;18.85;;;4.53;;
33714;SDS011;20043;50.998;4.754;2023-08-08T02:32:14;19.20;;;3.58;;
33714;SDS011;20043;50.998;4.754;2023-08-08T02:34:40;21.80;;;5.00;;
33714;SDS011;20043;50.998;4.754;2023-08-08T02:37:06;17.70;;;4.30;;
33714;SDS011;20043;50.998;4.754;2023-08-08T02:39:31;13.25;;;4.32;;
33714;SDS011;20043;50.998;4.754;2023-08-08T02:41:57;25.50;;;5.20;;
33714;SDS011;20043;50.998;4.754;2023-08-08T02:44:23;12.55;;;4.38;;
33714;SDS011;20043;50.998;4.754;2023-08-08T02:46:48;19.00;;;4.40;;
33714;SDS011;20043;50.998;4.754;2023-08-08T02:49:14;21.70;;;5.05;;
33714;SDS011;20043;50.998;4.754;2023-08-08T02:51:40;21.38;;;4.82;;
33714;SDS011;20043;50.998;4.754;2023-08-08T02:54:05;18.85;;;5.50;;
33714;SDS011;20043;50.998;4.754;2023-08-08T02:56:31;22.60;;;4.80;;
33714;SDS011;20043;50.998;4.754;2023-08-08T02:58:56;21.08;;;5.03;;
33714;SDS011;20043;50.998;4.754;2023-08-08T03:01:23;19.33;;;5.00;;
33714;SDS011;20043;50.998;4.754;2023-08-08T03:03:49;26.60;;;5.20;;
33714;SDS011;20043;50.998;4.754;2023-08-08T03:06:14;23.23;;;5.22;;
33714;SDS011;20043;50.998;4.754;2023-08-08T03:08:40;16.48;;;4.50;;
33714;SDS011;20043;50.998;4.754;2023-08-08T03:11:06;25.63;;;5.28;;
33714;SDS011;20043;50.998;4.754;2023-08-08T03:13:31;18.15;;;4.85;;
33714;SDS011;20043;50.998;4.754;2023-08-08T03:15:57;19.90;;;5.30;;
33714;SDS011;20043;50.998;4.754;2023-08-08T03:18:23;16.92;;;4.70;;
33714;SDS011;20043;50.998;4.754;2023-08-08T03:20:50;18.80;;;5.43;;
33714;SDS011;20043;50.998;4.754;2023-08-08T03:23:16;22.15;;;5.57;;
33714;SDS011;20043;50.998;4.754;2023-08-08T03:25:42;17.35;;;5.20;;
33714;SDS011;20043;50.998;4.754;2023-08-08T03:28:08;26.30;;;5.13;;
33714;SDS011;20043;50.998;4.754;2023-08-08T03:30:35;16.35;;;4.80;;
33714;SDS011;20043;50.998;4.754;2023-08-08T03:33:02;16.38;;;5.45;;
33714;SDS011;20043;50.998;4.754;2023-08-08T03:35:28;17.00;;;4.80;;
33714;SDS011;20043;50.998;4.754;2023-08-08T03:37:54;24.90;;;4.95;;
33714;SDS011;20043;50.998;4.754;2023-08-08T03:40:19;22.63;;;4.72;;
33714;SDS011;20043;50.998;4.754;2023-08-08T03:42:45;23.83;;;5.28;;
33714;SDS011;20043;50.998;4.754;2023-08-08T03:45:10;16.80;;;4.82;;
33714;SDS011;20043;50.998;4.754;2023-08-08T03:47:36;22.48;;;4.90;;
33714;SDS011;20043;50.998;4.754;2023-08-08T03:50:02;17.92;;;4.70;;
33714;SDS011;20043;50.998;4.754;2023-08-08T03:52:29;18.00;;;5.00;;
33714;SDS011;20043;50.998;4.754;2023-08-08T03:54:55;15.35;;;5.05;;
33714;SDS011;20043;50.998;4.754;2023-08-08T03:57:20;21.67;;;4.85;;
33714;SDS011;20043;50.998;4.754;2023-08-08T03:59:46;19.08;;;5.10;;
33714;SDS011;20043;50.998;4.754;2023-08-08T04:02:12;20.13;;;5.57;;
33714;SDS011;20043;50.998;4.754;2023-08-08T04:04:37;19.17;;;5.47;;
33714;SDS011;20043;50.998;4.754;2023-08-08T04:07:03;24.60;;;5.93;;
33714;SDS011;20043;50.998;4.754;2023-08-08T04:09:29;17.73;;;5.80;;
33714;SDS011;20043;50.998;4.754;2023-08-08T04:11:55;21.67;;;6.30;;
33714;SDS011;20043;50.998;4.754;2023-08-08T04:14:20;21.98;;;6.55;;
33714;SDS011;20043;50.998;4.754;2023-08-08T04:16:46;25.55;;;5.70;;
33714;SDS011;20043;50.998;4.754;2023-08-08T04:19:11;19.08;;;5.75;;
33714;SDS011;20043;50.998;4.754;2023-08-08T04:21:37;30.88;;;7.38;;
33714;SDS011;20043;50.998;4.754;2023-08-08T04:24:03;24.77;;;6.13;;
33714;SDS011;20043;50.998;4.754;2023-08-08T04:26:28;22.02;;;5.72;;
33714;SDS011;20043;50.998;4.754;2023-08-08T04:28:54;20.15;;;5.95;;
33714;SDS011;20043;50.998;4.754;2023-08-08T04:31:20;27.40;;;5.93;;
33714;SDS011;20043;50.998;4.754;2023-08-08T04:33:49;28.00;;;6.30;;
33714;SDS011;20043;50.998;4.754;2023-08-08T04:36:15;27.73;;;6.22;;
33714;SDS011;20043;50.998;4.754;2023-08-08T04:38:40;29.73;;;6.63;;
33714;SDS011;20043;50.998;4.754;2023-08-08T04:41:06;25.35;;;6.10;;
33714;SDS011;20043;50.998;4.754;2023-08-08T04:43:31;27.63;;;6.57;;
33714;SDS011;20043;50.998;4.754;2023-08-08T04:45:57;24.13;;;6.28;;
33714;SDS011;20043;50.998;4.754;2023-08-08T04:48:23;20.15;;;6.22;;
33714;SDS011;20043;50.998;4.754;2023-08-08T04:50:48;26.63;;;6.20;;
33714;SDS011;20043;50.998;4.754;2023-08-08T04:53:14;23.17;;;6.70;;
33714;SDS011;20043;50.998;4.754;2023-08-08T04:55:39;26.77;;;6.43;;
33714;SDS011;20043;50.998;4.754;2023-08-08T04:58:05;23.98;;;6.38;;
33714;SDS011;20043;50.998;4.754;2023-08-08T05:00:31;23.73;;;5.35;;
33714;SDS011;20043;50.998;4.754;2023-08-08T05:02:56;16.90;;;4.97;;
33714;SDS011;20043;50.998;4.754;2023-08-08T05:05:22;16.52;;;4.85;;
33714;SDS011;20043;50.998;4.754;2023-08-08T05:07:48;22.30;;;5.13;;
33714;SDS011;20043;50.998;4.754;2023-08-08T05:10:13;15.10;;;4.65;;
33714;SDS011;20043;50.998;4.754;2023-08-08T05:12:39;19.73;;;5.00;;
33714;SDS011;20043;50.998;4.754;2023-08-08T05:15:05;18.67;;;4.00;;
33714;SDS011;20043;50.998;4.754;2023-08-08T05:17:31;18.15;;;4.38;;
33714;SDS011;20043;50.998;4.754;2023-08-08T05:19:57;16.45;;;4.18;;
33714;SDS011;20043;50.998;4.754;2023-08-08T05:22:23;20.75;;;4.65;;
33714;SDS011;20043;50.998;4.754;2023-08-08T05:24:48;21.60;;;4.95;;
33714;SDS011;20043;50.998;4.754;2023-08-08T05:27:14;18.17;;;4.63;;
33714;SDS011;20043;50.998;4.754;2023-08-08T05:29:39;15.63;;;4.35;;
33714;SDS011;20043;50.998;4.754;2023-08-08T05:32:06;20.83;;;4.60;;
33714;SDS011;20043;50.998;4.754;2023-08-08T05:34:33;16.77;;;3.85;;
33714;SDS011;20043;50.998;4.754;2023-08-08T05:36:59;11.70;;;3.22;;
33714;SDS011;20043;50.998;4.754;2023-08-08T05:39:24;14.60;;;3.78;;
33714;SDS011;20043;50.998;4.754;2023-08-08T05:41:50;18.67;;;4.28;;
33714;SDS011;20043;50.998;4.754;2023-08-08T05:44:16;14.65;;;4.32;;
33714;SDS011;20043;50.998;4.754;2023-08-08T05:46:48;14.50;;;3.47;;
33714;SDS011;20043;50.998;4.754;2023-08-08T05:49:13;14.63;;;3.90;;
33714;SDS011;20043;50.998;4.754;2023-08-08T05:51:39;14.15;;;3.55;;
33714;SDS011;20043;50.998;4.754;2023-08-08T05:54:05;19.05;;;3.92;;
33714;SDS011;20043;50.998;4.754;2023-08-08T05:56:34;18.23;;;3.88;;
33714;SDS011;20043;50.998;4.754;2023-08-08T05:59:03;20.17;;;3.72;;
33714;SDS011;20043;50.998;4.754;2023-08-08T06:01:29;12.90;;;3.50;;
33714;SDS011;20043;50.998;4.754;2023-08-08T06:03:55;12.95;;;3.65;;
33714;SDS011;20043;50.998;4.754;2023-08-08T06:06:24;21.52;;;3.47;;
33714;SDS011;20043;50.998;4.754;2023-08-08T06:08:50;20.83;;;4.47;;
33714;SDS011;20043;50.998;4.754;2023-08-08T06:11:16;19.40;;;4.07;;
33714;SDS011;20043;50.998;4.754;2023-08-08T06:13:42;22.85;;;4.10;;
33714;SDS011;20043;50.998;4.754;2023-08-08T06:16:08;18.02;;;3.88;;
33714;SDS011;20043;50.998;4.754;2023-08-08T06:18:34;15.95;;;3.95;;
33714;SDS011;20043;50.998;4.754;2023-08-08T06:21:00;22.00;;;3.92;;
33714;SDS011;20043;50.998;4.754;2023-08-08T06:23:25;19.70;;;3.17;;
33714;SDS011;20043;50.998;4.754;2023-08-08T06:25:51;22.50;;;4.63;;
33714;SDS011;20043;50.998;4.754;2023-08-08T06:28:17;17.02;;;3.83;;
33714;SDS011;20043;50.998;4.754;2023-08-08T06:30:43;15.15;;;3.20;;
33714;SDS011;20043;50.998;4.754;2023-08-08T06:33:08;17.33;;;4.07;;
33714;SDS011;20043;50.998;4.754;2023-08-08T06:35:34;17.35;;;4.05;;
33714;SDS011;20043;50.998;4.754;2023-08-08T06:38:00;15.63;;;3.22;;
33714;SDS011;20043;50.998;4.754;2023-08-08T06:40:25;13.45;;;3.70;;
33714;SDS011;20043;50.998;4.754;2023-08-08T06:42:52;16.80;;;3.47;;
33714;SDS011;20043;50.998;4.754;2023-08-08T06:45:18;16.48;;;3.58;;
33714;SDS011;20043;50.998;4.754;2023-08-08T06:47:44;14.48;;;3.10;;
33714;SDS011;20043;50.998;4.754;2023-08-08T06:50:10;15.10;;;3.88;;
33714;SDS011;20043;50.998;4.754;2023-08-08T06:52:36;13.80;;;3.78;;
33714;SDS011;20043;50.998;4.754;2023-08-08T06:55:02;14.18;;;3.47;;
33714;SDS011;20043;50.998;4.754;2023-08-08T06:57:29;17.95;;;3.40;;
33714;SDS011;20043;50.998;4.754;2023-08-08T06:59:57;22.20;;;3.67;;
33714;SDS011;20043;50.998;4.754;2023-08-08T07:02:22;20.65;;;3.85;;
33714;SDS011;20043;50.998;4.754;2023-08-08T07:04:48;15.82;;;3.75;;
33714;SDS011;20043;50.998;4.754;2023-08-08T07:07:14;14.00;;;3.08;;
33714;SDS011;20043;50.998;4.754;2023-08-08T07:09:39;15.05;;;3.35;;
33714;SDS011;20043;50.998;4.754;2023-08-08T07:12:06;17.67;;;3.78;;
33714;SDS011;20043;50.998;4.754;2023-08-08T07:14:32;17.33;;;3.40;;
33714;SDS011;20043;50.998;4.754;2023-08-08T07:16:58;13.40;;;3.20;;
33714;SDS011;20043;50.998;4.754;2023-08-08T07:19:24;14.18;;;3.10;;
33714;SDS011;20043;50.998;4.754;2023-08-08T07:21:50;15.68;;;3.85;;
33714;SDS011;20043;50.998;4.754;2023-08-08T07:24:16;13.98;;;3.58;;
33714;SDS011;20043;50.998;4.754;2023-08-08T07:26:42;13.98;;;3.55;;
33714;SDS011;20043;50.998;4.754;2023-08-08T07:29:07;13.73;;;3.08;;
33714;SDS011;20043;50.998;4.754;2023-08-08T07:31:33;15.32;;;3.20;;
33714;SDS011;20043;50.998;4.754;2023-08-08T07:33:59;14.70;;;3.90;;
33714;SDS011;20043;50.998;4.754;2023-08-08T07:36:24;17.35;;;3.70;;
33714;SDS011;20043;50.998;4.754;2023-08-08T07:38:50;12.73;;;3.20;;
33714;SDS011;20043;50.998;4.754;2023-08-08T07:41:16;13.35;;;3.35;;
33714;SDS011;20043;50.998;4.754;2023-08-08T07:43:43;14.43;;;3.38;;
33714;SDS011;20043;50.998;4.754;2023-08-08T07:46:08;16.70;;;3.50;;
33714;SDS011;20043;50.998;4.754;2023-08-08T07:48:34;15.38;;;3.10;;
33714;SDS011;20043;50.998;4.754;2023-08-08T07:51:00;13.00;;;3.00;;
33714;SDS011;20043;50.998;4.754;2023-08-08T07:53:33;17.58;;;3.38;;
33714;SDS011;20043;50.998;4.754;2023-08-08T07:55:58;12.25;;;3.55;;
33714;SDS011;20043;50.998;4.754;2023-08-08T07:58:24;14.68;;;3.45;;
33714;SDS011;20043;50.998;4.754;2023-08-08T08:00:52;11.98;;;2.78;;
33714;SDS011;20043;50.998;4.754;2023-08-08T08:03:18;16.52;;;3.42;;
33714;SDS011;20043;50.998;4.754;2023-08-08T08:05:44;14.10;;;3.05;;
33714;SDS011;20043;50.998;4.754;2023-08-08T08:08:10;16.05;;;3.50;;
33714;SDS011;20043;50.998;4.754;2023-08-08T08:10:36;15.88;;;3.22;;
33714;SDS011;20043;50.998;4.754;2023-08-08T08:13:01;11.43;;;3.20;;
33714;SDS011;20043;50.998;4.754;2023-08-08T08:15:27;15.25;;;3.47;;
33714;SDS011;20043;50.998;4.754;2023-08-08T08:17:53;14.40;;;3.53;;
33714;SDS011;20043;50.998;4.754;2023-08-08T08:20:19;14.02;;;3.70;;
33714;SDS011;20043;50.998;4.754;2023-08-08T08:22:45;15.52;;;3.00;;
33714;SDS011;20043;50.998;4.754;2023-08-08T08:25:12;13.25;;;2.95;;
33714;SDS011;20043;50.998;4.754;2023-08-08T08:27:39;14.55;;;3.20;;
33714;SDS011;20043;50.998;4.754;2023-08-08T08:30:05;17.38;;;3.40;;
33714;SDS011;20043;50.998;4.754;2023-08-08T08:32:40;17.63;;;3.55;;
33714;SDS011;20043;50.998;4.754;2023-08-08T08:35:06;13.38;;;3.20;;
33714;SDS011;20043;50.998;4.754;2023-08-08T08:37:33;13.05;;;3.40;;
33714;SDS011;20043;50.998;4.754;2023-08-08T08:39:59;19.13;;;3.58;;
33714;SDS011;20043;50.998;4.754;2023-08-08T08:42:28;14.20;;;2.90;;
33714;SDS011;20043;50.998;4.754;2023-08-08T08:44:58;23.17;;;3.97;;
33714;SDS011;20043;50.998;4.754;2023-08-08T08:47:24;16.10;;;4.00;;
33714;SDS011;20043;50.998;4.754;2023-08-08T08:49:51;12.25;;;3.83;;
33714;SDS011;20043;50.998;4.754;2023-08-08T08:52:17;18.15;;;3.70;;
33714;SDS011;20043;50.998;4.754;2023-08-08T08:54:43;14.35;;;3.50;;
33714;SDS011;20043;50.998;4.754;2023-08-08T08:57:09;13.02;;;3.60;;
33714;SDS011;20043;50.998;4.754;2023-08-08T08:59:35;17.35;;;3.95;;
33714;SDS011;20043;50.998;4.754;2023-08-08T09:02:01;13.73;;;3.50;;
33714;SDS011;20043;50.998;4.754;2023-08-08T09:04:28;12.43;;;3.55;;
33714;SDS011;20043;50.998;4.754;2023-08-08T09:06:54;11.85;;;3.35;;
33714;SDS011;20043;50.998;4.754;2023-08-08T09:09:20;10.90;;;3.13;;
33714;SDS011;20043;50.998;4.754;2023-08-08T09:11:48;19.48;;;3.88;;
33714;SDS011;20043;50.998;4.754;2023-08-08T09:14:19;15.55;;;3.60;;
33714;SDS011;20043;50.998;4.754;2023-08-08T09:16:47;13.38;;;3.08;;
33714;SDS011;20043;50.998;4.754;2023-08-08T09:19:14;15.00;;;3.38;;
33714;SDS011;20043;50.998;4.754;2023-08-08T09:21:41;13.35;;;3.30;;
33714;SDS011;20043;50.998;4.754;2023-08-08T09:24:06;15.70;;;3.40;;
33714;SDS011;20043;50.998;4.754;2023-08-08T09:26:33;16.15;;;3.30;;
33714;SDS011;20043;50.998;4.754;2023-08-08T09:28:59;13.27;;;3.40;;
33714;SDS011;20043;50.998;4.754;2023-08-08T09:31:26;11.43;;;2.85;;
33714;SDS011;20043;50.998;4.754;2023-08-08T09:33:59;9.27;;;3.08;;
33714;SDS011;20043;50.998;4.754;2023-08-08T09:36:25;10.93;;;3.15;;
33714;SDS011;20043;50.998;4.754;2023-08-08T09:38:52;9.73;;;3.38;;
33714;SDS011;20043;50.998;4.754;2023-08-08T09:41:19;12.57;;;3.25;;
33714;SDS011;20043;50.998;4.754;2023-08-08T09:43:47;12.55;;;3.08;;
33714;SDS011;20043;50.998;4.754;2023-08-08T09:46:13;15.00;;;3.60;;
33714;SDS011;20043;50.998;4.754;2023-08-08T09:48:40;10.77;;;2.67;;
33714;SDS011;20043;50.998;4.754;2023-08-08T09:51:07;12.20;;;2.80;;
33714;SDS011;20043;50.998;4.754;2023-08-08T09:53:33;12.60;;;2.65;;
33714;SDS011;20043;50.998;4.754;2023-08-08T09:56:00;9.98;;;3.05;;
33714;SDS011;20043;50.998;4.754;2023-08-08T09:58:29;9.05;;;2.80;;
33714;SDS011;20043;50.998;4.754;2023-08-08T10:00:55;10.63;;;2.80;;
33714;SDS011;20043;50.998;4.754;2023-08-08T10:03:21;12.27;;;3.20;;
33714;SDS011;20043;50.998;4.754;2023-08-08T10:05:47;14.75;;;3.45;;
33714;SDS011;20043;50.998;4.754;2023-08-08T10:08:16;14.88;;;3.35;;
33714;SDS011;20043;50.998;4.754;2023-08-08T10:10:47;11.45;;;2.85;;
33714;SDS011;20043;50.998;4.754;2023-08-08T10:13:24;10.40;;;3.08;;
33714;SDS011;20043;50.998;4.754;2023-08-08T10:15:51;13.30;;;3.25;;
33714;SDS011;20043;50.998;4.754;2023-08-08T10:18:18;12.70;;;2.70;;
33714;SDS011;20043;50.998;4.754;2023-08-08T10:20:47;12.13;;;2.75;;
33714;SDS011;20043;50.998;4.754;2023-08-08T10:23:17;10.45;;;3.08;;
33714;SDS011;20043;50.998;4.754;2023-08-08T10:25:47;11.48;;;2.50;;
33714;SDS011;20043;50.998;4.754;2023-08-08T10:28:16;10.35;;;2.40;;
33714;SDS011;20043;50.998;4.754;2023-08-08T10:30:43;11.02;;;2.78;;
33714;SDS011;20043;50.998;4.754;2023-08-08T10:33:17;10.23;;;2.17;;
33714;SDS011;20043;50.998;4.754;2023-08-08T10:35:51;11.15;;;2.83;;
33714;SDS011;20043;50.998;4.754;2023-08-08T10:38:42;8.23;;;2.25;;
33714;SDS011;20043;50.998;4.754;2023-08-08T10:41:22;11.43;;;2.40;;
33714;SDS011;20043;50.998;4.754;2023-08-08T10:43:53;10.75;;;3.00;;
33714;SDS011;20043;50.998;4.754;2023-08-08T10:46:31;10.15;;;2.33;;
33714;SDS011;20043;50.998;4.754;2023-08-08T10:49:02;10.63;;;2.63;;
33714;SDS011;20043;50.998;4.754;2023-08-08T10:54:05;8.98;;;2.80;;
33714;SDS011;20043;50.998;4.754;2023-08-08T10:56:34;8.80;;;2.72;;
33714;SDS011;20043;50.998;4.754;2023-08-08T10:59:11;7.15;;;2.53;;
33714;SDS011;20043;50.998;4.754;2023-08-08T11:01:42;9.07;;;2.70;;
33714;SDS011;20043;50.998;4.754;2023-08-08T11:04:10;7.43;;;2.50;;
33714;SDS011;20043;50.998;4.754;2023-08-08T11:06:37;5.28;;;2.58;;
33714;SDS011;20043;50.998;4.754;2023-08-08T11:09:05;8.43;;;2.70;;
33714;SDS011;20043;50.998;4.754;2023-08-08T11:11:38;7.28;;;2.30;;
33714;SDS011;20043;50.998;4.754;2023-08-08T11:14:15;10.05;;;2.83;;
33714;SDS011;20043;50.998;4.754;2023-08-08T11:16:43;9.02;;;2.72;;
33714;SDS011;20043;50.998;4.754;2023-08-08T11:19:10;12.55;;;2.97;;
33714;SDS011;20043;50.998;4.754;2023-08-08T11:21:37;11.02;;;2.83;;
33714;SDS011;20043;50.998;4.754;2023-08-08T11:24:14;11.93;;;2.47;;
33714;SDS011;20043;50.998;4.754;2023-08-08T11:26:40;7.22;;;2.20;;
33714;SDS011;20043;50.998;4.754;2023-08-08T11:29:08;8.63;;;2.70;;
33714;SDS011;20043;50.998;4.754;2023-08-08T11:31:34;7.32;;;2.25;;
33714;SDS011;20043;50.998;4.754;2023-08-08T11:34:01;8.07;;;2.97;;
33714;SDS011;20043;50.998;4.754;2023-08-08T11:36:30;5.45;;;2.22;;
33714;SDS011;20043;50.998;4.754;2023-08-08T11:39:10;5.10;;;2.35;;
33714;SDS011;20043;50.998;4.754;2023-08-08T11:41:36;4.95;;;1.88;;
33714;SDS011;20043;50.998;4.754;2023-08-08T11:44:03;6.07;;;2.13;;
33714;SDS011;20043;50.998;4.754;2023-08-08T11:46:29;7.03;;;2.28;;
33714;SDS011;20043;50.998;4.754;2023-08-08T11:49:01;4.78;;;2.00;;
33714;SDS011;20043;50.998;4.754;2023-08-08T11:51:31;4.28;;;1.75;;
33714;SDS011;20043;50.998;4.754;2023-08-08T11:53:58;4.90;;;1.98;;
33714;SDS011;20043;50.998;4.754;2023-08-08T11:56:26;4.28;;;1.60;;
33714;SDS011;20043;50.998;4.754;2023-08-08T11:58:51;5.35;;;1.70;;
33714;SDS011;20043;50.998;4.754;2023-08-08T12:01:21;4.28;;;1.77;;
33714;SDS011;20043;50.998;4.754;2023-08-08T12:03:47;3.50;;;1.83;;
33714;SDS011;20043;50.998;4.754;2023-08-08T12:06:16;3.63;;;1.67;;
33714;SDS011;20043;50.998;4.754;2023-08-08T12:08:43;5.75;;;2.05;;
33714;SDS011;20043;50.998;4.754;2023-08-08T12:11:12;4.78;;;1.77;;
33714;SDS011;20043;50.998;4.754;2023-08-08T12:13:43;4.40;;;1.80;;
33714;SDS011;20043;50.998;4.754;2023-08-08T12:16:10;10.95;;;1.95;;
33714;SDS011;20043;50.998;4.754;2023-08-08T12:18:38;5.22;;;1.90;;
33714;SDS011;20043;50.998;4.754;2023-08-08T12:21:07;6.18;;;2.00;;
33714;SDS011;20043;50.998;4.754;2023-08-08T12:23:34;6.38;;;1.70;;
33714;SDS011;20043;50.998;4.754;2023-08-08T12:26:04;7.20;;;2.20;;
33714;SDS011;20043;50.998;4.754;2023-08-08T12:28:30;4.15;;;1.67;;
33714;SDS011;20043;50.998;4.754;2023-08-08T12:30:57;3.53;;;1.30;;
33714;SDS011;20043;50.998;4.754;2023-08-08T12:33:22;3.25;;;1.25;;
33714;SDS011;20043;50.998;4.754;2023-08-08T12:35:48;5.18;;;1.40;;
33714;SDS011;20043;50.998;4.754;2023-08-08T12:38:14;3.55;;;1.50;;
33714;SDS011;20043;50.998;4.754;2023-08-08T12:40:40;4.43;;;1.73;;
33714;SDS011;20043;50.998;4.754;2023-08-08T12:43:05;3.28;;;1.45;;
33714;SDS011;20043;50.998;4.754;2023-08-08T12:45:31;3.40;;;1.50;;
33714;SDS011;20043;50.998;4.754;2023-08-08T12:47:57;3.63;;;1.63;;
33714;SDS011;20043;50.998;4.754;2023-08-08T12:50:23;3.53;;;1.58;;
33714;SDS011;20043;50.998;4.754;2023-08-08T12:52:49;5.43;;;1.90;;
33714;SDS011;20043;50.998;4.754;2023-08-08T12:55:15;4.75;;;1.70;;
33714;SDS011;20043;50.998;4.754;2023-08-08T12:57:43;4.18;;;1.50;;
33714;SDS011;20043;50.998;4.754;2023-08-08T13:00:09;5.50;;;1.52;;
33714;SDS011;20043;50.998;4.754;2023-08-08T13:02:35;3.80;;;1.60;;
33714;SDS011;20043;50.998;4.754;2023-08-08T13:05:02;7.35;;;1.50;;
33714;SDS011;20043;50.998;4.754;2023-08-08T13:07:28;4.30;;;1.63;;
33714;SDS011;20043;50.998;4.754;2023-08-08T13:09:54;3.63;;;1.40;;
33714;SDS011;20043;50.998;4.754;2023-08-08T13:12:20;3.45;;;1.63;;
33714;SDS011;20043;50.998;4.754;2023-08-08T13:14:46;4.65;;;1.40;;
33714;SDS011;20043;50.998;4.754;2023-08-08T13:17:12;6.50;;;1.40;;
33714;SDS011;20043;50.998;4.754;2023-08-08T13:19:38;10.60;;;1.60;;
33714;SDS011;20043;50.998;4.754;2023-08-08T13:22:03;2.13;;;1.30;;
33714;SDS011;20043;50.998;4.754;2023-08-08T13:24:29;3.38;;;1.60;;
33714;SDS011;20043;50.998;4.754;2023-08-08T13:26:55;3.00;;;1.30;;
33714;SDS011;20043;50.998;4.754;2023-08-08T13:29:21;6.10;;;1.60;;
33714;SDS011;20043;50.998;4.754;2023-08-08T13:31:47;4.18;;;1.30;;
33714;SDS011;20043;50.998;4.754;2023-08-08T13:34:12;2.38;;;1.20;;
33714;SDS011;20043;50.998;4.754;2023-08-08T13:36:38;9.00;;;1.30;;
33714;SDS011;20043;50.998;4.754;2023-08-08T13:39:04;6.05;;;1.23;;
33714;SDS011;20043;50.998;4.754;2023-08-08T13:41:29;6.45;;;1.50;;
33714;SDS011;20043;50.998;4.754;2023-08-08T13:43:55;7.97;;;1.20;;
33714;SDS011;20043;50.998;4.754;2023-08-08T13:46:21;5.57;;;1.40;;
33714;SDS011;20043;50.998;4.754;2023-08-08T13:48:47;4.68;;;1.60;;
33714;SDS011;20043;50.998;4.754;2023-08-08T13:51:12;4.65;;;1.58;;
33714;SDS011;20043;50.998;4.754;2023-08-08T13:53:38;4.10;;;1.10;;
33714;SDS011;20043;50.998;4.754;2023-08-08T13:56:04;4.18;;;1.30;;
33714;SDS011;20043;50.998;4.754;2023-08-08T13:58:29;2.80;;;1.23;;
33714;SDS011;20043;50.998;4.754;2023-08-08T14:00:55;4.05;;;1.58;;
33714;SDS011;20043;50.998;4.754;2023-08-08T14:03:22;2.15;;;1.38;;
33714;SDS011;20043;50.998;4.754;2023-08-08T14:05:49;5.18;;;1.38;;
33714;SDS011;20043;50.998;4.754;2023-08-08T14:08:17;7.03;;;1.92;;
33714;SDS011;20043;50.998;4.754;2023-08-08T14:10:50;7.05;;;1.50;;
33714;SDS011;20043;50.998;4.754;2023-08-08T14:13:15;3.42;;;1.45;;
33714;SDS011;20043;50.998;4.754;2023-08-08T14:15:41;2.80;;;1.58;;
33714;SDS011;20043;50.998;4.754;2023-08-08T14:18:07;6.50;;;1.50;;
33714;SDS011;20043;50.998;4.754;2023-08-08T14:20:33;4.18;;;1.80;;
33714;SDS011;20043;50.998;4.754;2023-08-08T14:22:58;2.95;;;1.50;;
33714;SDS011;20043;50.998;4.754;2023-08-08T14:25:25;3.83;;;1.20;;
33714;SDS011;20043;50.998;4.754;2023-08-08T14:27:50;4.63;;;1.30;;
33714;SDS011;20043;50.998;4.754;2023-08-08T14:30:16;2.88;;;1.52;;
33714;SDS011;20043;50.998;4.754;2023-08-08T14:32:42;4.90;;;1.50;;
33714;SDS011;20043;50.998;4.754;2023-08-08T14:35:07;4.22;;;1.30;;
33714;SDS011;20043;50.998;4.754;2023-08-08T14:37:34;3.53;;;1.50;;
33714;SDS011;20043;50.998;4.754;2023-08-08T14:40:00;6.45;;;1.45;;